Latest Weather Observations for Woolshed

IDQ60801

Issued at 9:02 pm EST Monday 27 June 2016 (issued every 30 minutes, with the page automatically refreshed every 10 minutes)

About weather observations | Map of weather stations | Latest weather observations for QLD | Other Formats
Station Details ID: 033307 Name: WOOLSHED Lat: -19.42 Lon: 146.54 Height: 556.04 m
Data from the previous 72 hours. | See also: Recent months at Woolshed
Date/Time
EST
Temp
°C
App
Temp
°C
Dew
Point
°C
Rel
Hum
%
Delta-T
°C
Wind Press
QNH
hPa
Press
MSL
hPa
Rain since
9am
mm
Dir  Spd
km/h
Gust
km/h
Spd
kts
Gust
kts
27/09:00pm 19.8 23.2 19.3 97 0.3 CALM 0 4 0 2 1019.7 1018.1 0.4
27/08:30pm 19.6 22.8 18.9 96 0.4 CALM 0 0 0 0 1019.6 1018.0 0.4
27/08:00pm 20.2 23.7 19.5 96 0.5 CALM 0 0 0 0 1019.3 1017.7 0.4
27/07:30pm 20.4 24.1 19.9 97 0.3 CALM 0 0 0 0 1019.3 1017.7 0.4
27/07:00pm 20.4 23.7 19.9 97 0.3 NE 2 4 1 2 1018.8 1017.2 0.4
27/06:30pm 20.5 23.4 19.8 96 0.5 NE 4 9 2 5 1018.7 1017.1 0.4
27/06:00pm 20.8 23.4 20.1 96 0.5 NNE 6 11 3 6 1018.4 1016.8 0.4
27/05:30pm 21.1 23.8 20.3 95 0.5 NE 6 11 3 6 1018.0 1016.4 0.4
27/05:00pm 21.4 24.5 20.2 93 0.8 NE 4 7 2 4 1017.6 1016.0 0.4
27/04:30pm 21.7 24.1 20.0 90 1.1 NE 7 11 4 6 1017.3 1015.7 0.4
27/04:00pm 23.0 24.9 19.8 82 2.1 NNE 9 13 5 7 1017.2 1015.6 0.2
27/03:30pm 23.1 25.8 20.2 84 1.9 NNE 6 9 3 5 1017.0 1015.4 0.2
27/03:00pm 22.9 25.6 20.2 85 1.8 NNE 6 13 3 7 1017.0 1015.4 0.2
27/02:30pm 22.4 24.7 19.9 86 1.6 N 7 15 4 8 1017.1 1015.5 0.2
27/02:00pm 22.4 24.3 19.8 85 1.7 NNE 9 15 5 8 1017.2 1015.6 0.2
27/01:30pm 22.6 24.9 19.9 85 1.8 NNE 7 13 4 7 1017.3 1015.7 0.2
27/01:00pm 22.4 25.3 19.9 86 1.6 NNE 4 9 2 5 1017.9 1016.3 0.2
27/12:30pm 22.3 24.8 19.8 86 1.6 NNE 6 11 3 6 1018.5 1016.9 0.2
27/12:00pm 21.8 24.1 19.5 87 1.5 NNE 6 11 3 6 1018.7 1017.1 0.2
27/11:30am 21.2 24.8 20.5 96 0.5 NNE 2 7 1 4 1019.1 1017.5 0.0
27/11:00am 20.2 23.5 20.0 99 0.1 N 2 6 1 3 1019.4 1017.8 0.0
27/10:30am 19.9 23.1 19.7 99 0.1 NNE 2 7 1 4 1019.5 1017.9 0.0
27/10:00am 19.7 22.5 19.7 100 0.0 NE 4 13 2 7 1019.4 1017.8 0.0
27/09:30am 19.8 22.7 19.8 100 0.0 NNE 4 9 2 5 1019.5 1017.9 0.0
27/09:00am 19.5 21.8 19.5 100 0.0 NE 6 11 3 6 1019.2 1017.6 0.4
27/08:30am 19.4 22.1 19.4 100 0.0 NE 4 9 2 5 1019.2 1017.6 0.4
27/08:00am 19.2 21.8 19.2 100 0.0 NNE 4 9 2 5 1019.1 1017.5 0.4
27/07:30am 18.9 21.6 18.7 99 0.1 NE 2 7 1 4 1018.7 1017.1 0.4
27/07:00am 19.0 21.1 19.0 100 0.0 NE 6 9 3 5 1018.4 1016.8 0.4
27/06:30am 18.9 21.3 18.7 99 0.1 NE 4 9 2 5 1018.3 1016.7 0.4
27/06:00am 18.9 21.3 18.7 99 0.1 NE 4 13 2 7 1017.9 1016.3 0.4
27/05:30am 18.7 20.6 18.5 99 0.1 NE 6 13 3 7 1017.7 1016.1 0.4
27/05:00am 18.6 19.9 18.4 99 0.1 NNE 9 17 5 9 1017.4 1015.8 0.4
27/04:30am 18.5 20.1 18.3 99 0.1 NE 7 15 4 8 1017.2 1015.6 0.4
27/04:00am 18.3 19.4 18.1 99 0.1 NE 9 17 5 9 1017.0 1015.4 0.4
27/03:30am 18.1 19.2 17.9 99 0.1 NE 9 17 5 9 1016.8 1015.2 0.4
27/03:00am 18.1 19.5 17.9 99 0.1 NE 7 15 4 8 1016.9 1015.3 0.4
27/02:30am 18.0 19.4 17.8 99 0.1 NE 7 15 4 8 1017.0 1015.4 0.4
27/02:00am 18.0 19.0 17.8 99 0.1 NE 9 15 5 8 1017.1 1015.5 0.4
27/01:30am 18.0 19.0 17.8 99 0.1 NE 9 17 5 9 1017.4 1015.8 0.2
27/01:00am 17.9 19.3 17.7 99 0.1 NE 7 17 4 9 1017.7 1016.1 0.0
27/12:30am 17.9 18.9 17.7 99 0.1 NE 9 15 5 8 1017.7 1016.1 0.0
27/12:00am 17.9 18.9 17.7 99 0.1 NE 9 17 5 9 1017.7 1016.1 0.0
 
Date/Time
EST
Temp
°C
App
Temp
°C
Dew
Point
°C
Rel
Hum
%
Delta-T
°C
Wind Press
QNH
hPa
Press
MSL
hPa
Rain since
9am
mm
Dir  Spd
km/h
Gust
km/h
Spd
kts
Gust
kts
26/11:30pm 17.9 18.9 17.7 99 0.1 NE 9 17 5 9 1017.6 1016.0 0.0
26/11:00pm 17.8 19.1 17.6 99 0.1 NE 7 13 4 7 1017.8 1016.2 0.0
26/10:30pm 17.7 19.0 17.5 99 0.1 NE 7 15 4 8 1017.9 1016.3 0.0
26/10:00pm 17.6 18.8 17.4 99 0.1 NE 7 13 4 7 1018.0 1016.4 0.0
26/09:30pm 17.6 18.8 17.3 98 0.2 NNE 7 15 4 8 1018.0 1016.4 0.0
26/09:00pm 17.6 19.0 17.3 98 0.2 NE 6 15 3 8 1017.9 1016.3 0.0
26/08:30pm 17.5 18.6 17.2 98 0.2 NE 7 13 4 7 1017.9 1016.3 0.0
26/08:00pm 17.6 18.7 17.1 97 0.3 NNE 7 13 4 7 1017.9 1016.3 0.0
26/07:30pm 17.6 18.9 17.1 97 0.3 NNE 6 11 3 6 1017.7 1016.1 0.0
26/07:00pm 17.5 19.1 17.0 97 0.3 NE 4 9 2 5 1017.6 1016.0 0.0
26/06:30pm 17.5 18.8 17.0 97 0.3 NE 6 11 3 6 1017.4 1015.8 0.0
26/06:00pm 17.5 18.8 17.0 97 0.3 NE 6 11 3 6 1017.1 1015.5 0.0
26/05:30pm 17.8 19.1 17.0 95 0.5 NNE 6 11 3 6 1016.9 1015.3 0.0
26/05:00pm 17.9 19.1 16.9 94 0.6 NNE 6 13 3 7 1016.8 1015.2 0.0
26/04:30pm 18.0 19.0 16.9 93 0.7 NE 7 15 4 8 1016.5 1014.8 0.0
26/04:00pm 18.4 19.9 16.7 90 1.0 NNE 4 9 2 5 1016.5 1014.8 0.0
26/03:30pm 19.2 20.8 16.8 86 1.5 NNW 4 7 2 4 1016.6 1014.9 0.0
26/03:00pm 19.3 20.8 16.7 85 1.6 NE 4 7 2 4 1016.7 1015.1 0.0
26/02:30pm 19.2 20.1 16.2 83 1.8 NNE 6 11 3 6 1016.6 1014.9 0.0
26/02:00pm 19.4 20.3 16.1 81 2.0 NNE 6 9 3 5 1016.8 1015.2 0.0
26/01:30pm 20.1 21.2 16.5 80 2.2 NNE 6 11 3 6 1017.0 1015.4 0.0
26/01:00pm 19.5 20.4 16.0 80 2.1 NNE 6 9 3 5 1017.4 1015.8 0.0
26/12:30pm 19.2 20.5 16.1 82 1.9 NNE 4 7 2 4 1017.9 1016.3 0.0
26/12:00pm 19.4 20.7 16.1 81 2.0 NNE 4 9 2 5 1018.4 1016.8 0.0
26/11:30am 19.3 20.5 15.8 80 2.1 NNE 4 7 2 4 1018.7 1017.1 0.0
26/11:00am 19.3 20.0 15.6 79 2.2 NE 6 11 3 6 1019.0 1017.4 0.0
26/10:30am 19.4 20.3 16.1 81 2.0 NE 6 11 3 6 1019.1 1017.5 0.0
26/10:00am 19.3 20.8 15.8 80 2.1 ENE 2 6 1 3 1019.4 1017.8 0.0
26/09:30am 18.5 19.2 15.6 83 1.8 ENE 6 13 3 7 1019.5 1017.9 0.0
26/09:00am 18.1 18.7 15.4 84 1.6 NE 6 13 3 7 1019.3 1017.7 0.0
26/08:30am 17.7 18.3 15.3 86 1.4 ENE 6 13 3 7 1019.2 1017.6 0.0
26/08:00am 17.4 17.7 14.9 85 1.5 NE 7 17 4 9 1019.0 1017.4 0.0
26/07:30am 16.7 17.0 14.9 89 1.1 ENE 7 13 4 7 1018.6 1017.0 0.0
26/07:00am 16.2 16.5 14.9 92 0.8 ENE 7 13 4 7 1018.2 1016.5 0.0
26/06:30am 15.9 16.4 14.9 94 0.6 ENE 6 11 3 6 1018.0 1016.4 0.0
26/06:00am 16.3 16.9 15.2 93 0.7 NE 6 11 3 6 1017.8 1016.2 0.0
26/05:30am 16.2 16.7 15.1 93 0.7 ENE 6 15 3 8 1017.5 1015.9 0.0
26/05:00am 16.3 16.9 15.2 93 0.7 ENE 6 11 3 6 1017.3 1015.7 0.0
26/04:30am 16.0 16.8 14.9 93 0.6 ENE 4 7 2 4 1017.3 1015.7 0.0
26/04:00am 16.3 17.1 14.8 91 0.9 ENE 4 6 2 3 1017.1 1015.5 0.0
26/03:30am 16.6 17.1 15.0 90 0.9 NE 6 9 3 5 1017.2 1015.6 0.0
26/03:00am 16.8 17.2 15.3 91 0.9 ENE 7 17 4 9 1017.3 1015.7 0.0
26/02:30am 16.8 17.4 15.3 91 0.9 ENE 6 13 3 7 1017.4 1015.8 0.0
26/02:00am 16.9 17.5 15.2 90 1.0 NE 6 13 3 7 1017.6 1016.0 0.0
26/01:30am 17.0 17.7 15.5 91 0.9 ENE 6 13 3 7 1017.9 1016.3 0.0
26/01:00am 17.0 17.7 15.5 91 0.9 ENE 6 9 3 5 1018.2 1016.5 0.0
26/12:30am 16.9 18.0 15.6 92 0.8 ENE 4 11 2 6 1018.5 1016.9 0.0
26/12:00am 16.4 17.9 15.8 96 0.4 ENE 2 6 1 3 1018.6 1017.0 0.0
 
Date/Time
EST
Temp
°C
App
Temp
°C
Dew
Point
°C
Rel
Hum
%
Delta-T
°C
Wind Press
QNH
hPa
Press
MSL
hPa
Rain since
9am
mm
Dir  Spd
km/h
Gust
km/h
Spd
kts
Gust
kts
25/11:30pm 16.3 17.4 15.5 95 0.5 NE 4 9 2 5 1018.9 1017.3 0.0
25/11:00pm 16.6 17.7 15.5 93 0.7 NE 4 9 2 5 1019.0 1017.4 0.0
25/10:30pm 17.1 17.9 15.8 92 0.8 NE 6 11 3 6 1019.2 1017.6 0.0
25/10:00pm 17.2 18.0 15.9 92 0.8 NE 6 11 3 6 1019.3 1017.7 0.0
25/09:30pm 17.0 18.1 15.7 92 0.8 NE 4 9 2 5 1019.1 1017.5 0.0
25/09:00pm 16.9 17.5 15.4 91 0.9 NE 6 11 3 6 1019.0 1017.4 0.0
25/08:30pm 17.0 17.7 15.5 91 0.9 NNE 6 13 3 7 1019.0 1017.4 0.0
25/08:00pm 17.3 17.9 15.8 91 0.9 NNE 7 15 4 8 1018.9 1017.3 0.0
25/07:30pm 17.4 17.9 15.6 89 1.1 NNE 7 19 4 10 1018.6 1017.0 0.0
25/07:00pm 17.3 17.7 14.8 85 1.5 NNE 6 9 3 5 1018.3 1016.7 0.0
25/06:30pm 17.7 17.9 14.2 80 2.1 NNE 6 11 3 6 1018.2 1016.5 0.0
25/06:00pm 18.3 18.4 14.0 76 2.5 NNE 6 13 3 7 1017.9 1016.3 0.0
25/05:30pm 19.5 19.6 13.9 70 3.3 NNE 6 13 3 7 1017.9 1016.3 0.0
25/05:00pm 21.0 20.7 13.4 62 4.5 NNE 7 13 4 7 1017.7 1016.1 0.0
25/04:30pm 23.0 23.1 11.4 48 6.7 NNE 2 6 1 3 1017.4 1015.8 0.0
25/04:00pm 23.4 22.6 11.1 46 7.0 NNE 6 11 3 6 1017.1 1015.5 0.0
25/03:30pm 23.7 23.3 11.1 45 7.2 NE 4 9 2 5 1017.0 1015.4 0.0
25/03:00pm 24.0 23.7 11.3 45 7.3 N 4 11 2 6 1017.0 1015.4 0.0
25/02:30pm 24.1 23.4 11.4 45 7.3 NE 6 13 3 7 1017.2 1015.6 0.0
25/02:00pm 24.2 23.9 11.5 45 7.3 NE 4 9 2 5 1017.4 1015.8 0.0
25/01:30pm 24.2 23.5 11.5 45 7.3 NNE 6 13 3 7 1017.8 1016.2 0.0
25/01:00pm 23.9 23.5 12.5 49 6.7 ESE 6 9 3 5 1018.4 1016.8 0.0
25/12:30pm 23.6 23.2 12.3 49 6.6 E 6 11 3 6 1019.0 1017.4 0.0
25/12:00pm 23.6 23.9 12.3 49 6.6 S 2 6 1 3 1019.3 1017.7 0.0
25/11:30am 22.9 23.2 12.2 51 6.2 SW 2 7 1 4 1019.7 1018.1 0.0
25/11:00am 21.0 20.6 11.1 53 5.6 S 4 7 2 4 1020.1 1018.5 0.0
25/10:30am 20.7 20.4 11.3 55 5.3 SSW 4 9 2 5 1020.3 1018.7 0.0
25/10:00am 19.7 18.8 11.5 59 4.6 S 7 13 4 7 1020.3 1018.7 0.0
25/09:30am 19.0 17.7 11.3 61 4.3 SSW 9 17 5 9 1020.2 1018.6 0.0
25/09:00am 18.0 17.0 11.1 64 3.8 SSW 7 15 4 8 1020.1 1018.5 0.2
25/08:30am 17.2 16.3 11.2 68 3.3 S 7 17 4 9 1019.6 1018.0 0.2
25/08:00am 16.4 14.3 11.3 72 2.8 S 13 22 7 12 1019.3 1017.7 0.2
25/07:30am 15.5 14.3 11.7 78 2.1 SSW 9 15 5 8 1019.1 1017.5 0.2
25/07:00am 15.3 14.1 11.7 79 2.0 SSW 9 19 5 10 1018.9 1017.3 0.2
25/06:30am 15.5 14.3 11.7 78 2.1 SSW 9 17 5 9 1018.5 1016.9 0.2
25/06:00am 15.9 14.7 11.7 76 2.3 SSW 9 17 5 9 1018.3 1016.7 0.2
25/05:30am 16.1 14.8 11.3 73 2.7 SSW 9 15 5 8 1018.2 1016.5 0.2
25/05:00am 16.3 15.3 11.0 71 2.9 SSW 7 15 4 8 1017.8 1016.2 0.2
25/04:30am 16.8 15.4 10.9 68 3.3 SSW 9 17 5 9 1017.8 1016.2 0.2
25/04:00am 17.3 15.5 10.9 66 3.5 SSW 11 20 6 11 1017.6 1016.0 0.2
25/03:30am 17.4 16.3 10.5 64 3.8 SSW 7 15 4 8 1017.6 1016.0 0.2
25/03:00am 17.6 16.1 10.5 63 3.9 SSW 9 17 5 9 1017.6 1016.0 0.2
25/02:30am 18.1 16.5 10.2 60 4.3 S 9 17 5 9 1017.5 1015.9 0.2
25/02:00am 18.2 16.6 10.3 60 4.3 S 9 15 5 8 1017.7 1016.1 0.2
25/01:30am 18.3 17.1 10.4 60 4.3 S 7 13 4 7 1018.0 1016.4 0.2
25/01:00am 18.7 17.5 10.3 58 4.6 S 7 13 4 7 1018.2 1016.5 0.2
25/12:30am 18.6 17.6 10.4 59 4.5 S 6 9 3 5 1018.3 1016.7 0.2
25/12:00am 20.0 18.9 9.9 52 5.5 S 6 11 3 6 1018.4 1016.8 0.2
 
Date/Time
EST
Temp
°C
App
Temp
°C
Dew
Point
°C
Rel
Hum
%
Delta-T
°C
Wind Press
QNH
hPa
Press
MSL
hPa
Rain since
9am
mm
Dir  Spd
km/h
Gust
km/h
Spd
kts
Gust
kts
24/11:30pm 19.9 19.3 10.3 54 5.3 S 4 7 2 4 1018.6 1017.0 0.2
24/11:00pm 20.2 19.6 10.3 53 5.5 SSE 4 7 2 4 1018.6 1017.0 0.2
24/10:30pm 20.1 20.3 11.8 59 4.7 S 2 6 1 3 1018.6 1017.0 0.2
24/10:00pm 19.9 20.4 12.9 64 4.1 SSE 2 4 1 2 1018.7 1017.1 0.2
24/09:30pm 20.2 20.8 13.2 64 4.1 SSE 2 7 1 4 1018.6 1017.0 0.2

Other Formats:

Comma delimited format used in spreadsheet applications
http://www.bom.gov.au/fwo/IDQ60801/IDQ60801.95293.axf

JavaScript Object Notation format (JSON) in row-major order
http://www.bom.gov.au/fwo/IDQ60801/IDQ60801.95293.json